Ponte Vedra Beach, Florida
Current Conditions -  °F | °C
As of 12:53 PM on Thursday 30 Oct 2014 (Local Time) from KCRG Reporting Station
Few Clouds Few Clouds  
Wind Chill: 79°   Ceiling: Unl
Heat Index: 81°   Visibility: 10mi
Dew Point: 65°   Wind: 6mph
Humidity: 62%   Direction: NA
Pressure: 29.96"   Gusts: NA
Location:  30.24°N, 81.39°W
Report Text: KCRG 301653Z VRB05KT 10SM FEW024 26/18 A2996 RMK AO2 SLP145 T02610183
Loading
Personal Weather Stations






























Interactive Weather Map
Tropical Storm Tracking
New forecast layout! Learn more

10-Day Weather Forecast

Advertisements
Track Severe Weather on mobile